sensor_id;sensor_type;location;lat;lon;timestamp;temperature;humidity
39525;DHT22;25203;50.754;6.978;2023-04-16T00:01:11;7.80;99.90
39525;DHT22;25203;50.754;6.978;2023-04-16T00:03:12;7.80;99.90
39525;DHT22;25203;50.754;6.978;2023-04-16T00:05:13;7.80;99.90
39525;DHT22;25203;50.754;6.978;2023-04-16T00:07:14;7.80;99.90
39525;DHT22;25203;50.754;6.978;2023-04-16T00:09:15;7.80;99.90
39525;DHT22;25203;50.754;6.978;2023-04-16T00:11:15;7.80;99.90
39525;DHT22;25203;50.754;6.978;2023-04-16T00:13:16;7.90;99.90
39525;DHT22;25203;50.754;6.978;2023-04-16T00:15:17;7.80;99.90
39525;DHT22;25203;50.754;6.978;2023-04-16T00:17:17;7.90;99.90
39525;DHT22;25203;50.754;6.978;2023-04-16T00:19:18;7.90;99.90
39525;DHT22;25203;50.754;6.978;2023-04-16T00:21:18;7.80;99.90
39525;DHT22;25203;50.754;6.978;2023-04-16T00:23:19;7.80;99.90
39525;DHT22;25203;50.754;6.978;2023-04-16T00:25:20;7.80;99.90
39525;DHT22;25203;50.754;6.978;2023-04-16T00:27:21;7.80;99.90
39525;DHT22;25203;50.754;6.978;2023-04-16T00:29:22;7.80;99.90
39525;DHT22;25203;50.754;6.978;2023-04-16T00:31:29;7.90;99.90
39525;DHT22;25203;50.754;6.978;2023-04-16T00:33:30;7.90;99.90
39525;DHT22;25203;50.754;6.978;2023-04-16T00:35:31;7.90;99.90
39525;DHT22;25203;50.754;6.978;2023-04-16T00:37:31;7.90;99.90
39525;DHT22;25203;50.754;6.978;2023-04-16T00:39:32;7.90;99.90
39525;DHT22;25203;50.754;6.978;2023-04-16T00:41:33;7.90;99.90
39525;DHT22;25203;50.754;6.978;2023-04-16T00:43:33;7.90;99.90
39525;DHT22;25203;50.754;6.978;2023-04-16T00:45:34;8.00;99.90
39525;DHT22;25203;50.754;6.978;2023-04-16T00:47:35;8.00;99.90
39525;DHT22;25203;50.754;6.978;2023-04-16T00:49:36;8.00;99.90
39525;DHT22;25203;50.754;6.978;2023-04-16T00:51:37;8.00;99.90
39525;DHT22;25203;50.754;6.978;2023-04-16T00:53:38;8.00;99.90
39525;DHT22;25203;50.754;6.978;2023-04-16T00:55:38;7.90;99.90
39525;DHT22;25203;50.754;6.978;2023-04-16T00:57:40;7.90;99.90
39525;DHT22;25203;50.754;6.978;2023-04-16T00:59:41;7.90;99.90
39525;DHT22;25203;50.754;6.978;2023-04-16T01:01:41;7.90;99.90
39525;DHT22;25203;50.754;6.978;2023-04-16T01:03:44;7.90;99.90
39525;DHT22;25203;50.754;6.978;2023-04-16T01:05:45;7.90;99.90
39525;DHT22;25203;50.754;6.978;2023-04-16T01:07:49;8.00;99.90
39525;DHT22;25203;50.754;6.978;2023-04-16T01:09:50;8.00;99.90
39525;DHT22;25203;50.754;6.978;2023-04-16T01:11:50;8.00;99.90
39525;DHT22;25203;50.754;6.978;2023-04-16T01:13:51;8.00;99.90
39525;DHT22;25203;50.754;6.978;2023-04-16T01:15:52;7.90;99.90
39525;DHT22;25203;50.754;6.978;2023-04-16T01:17:52;7.90;99.90
39525;DHT22;25203;50.754;6.978;2023-04-16T01:19:53;7.90;99.90
39525;DHT22;25203;50.754;6.978;2023-04-16T01:21:53;7.90;99.90
39525;DHT22;25203;50.754;6.978;2023-04-16T01:23:54;7.90;99.90
39525;DHT22;25203;50.754;6.978;2023-04-16T01:25:54;7.90;99.90
39525;DHT22;25203;50.754;6.978;2023-04-16T01:27:55;7.90;99.90
39525;DHT22;25203;50.754;6.978;2023-04-16T01:29:56;7.90;99.90
39525;DHT22;25203;50.754;6.978;2023-04-16T01:31:57;7.90;99.90
39525;DHT22;25203;50.754;6.978;2023-04-16T01:33:57;7.90;99.90
39525;DHT22;25203;50.754;6.978;2023-04-16T01:35:58;7.90;99.90
39525;DHT22;25203;50.754;6.978;2023-04-16T01:37:59;7.90;99.90
39525;DHT22;25203;50.754;6.978;2023-04-16T01:39:59;7.80;99.90
39525;DHT22;25203;50.754;6.978;2023-04-16T01:42:00;7.90;99.90
39525;DHT22;25203;50.754;6.978;2023-04-16T01:44:01;7.90;99.90
39525;DHT22;25203;50.754;6.978;2023-04-16T01:46:12;7.80;99.90
39525;DHT22;25203;50.754;6.978;2023-04-16T01:48:14;7.80;99.90
39525;DHT22;25203;50.754;6.978;2023-04-16T01:50:15;7.80;99.90
39525;DHT22;25203;50.754;6.978;2023-04-16T01:52:15;7.80;99.90
39525;DHT22;25203;50.754;6.978;2023-04-16T01:54:16;7.90;99.90
39525;DHT22;25203;50.754;6.978;2023-04-16T01:56:16;7.90;99.90
39525;DHT22;25203;50.754;6.978;2023-04-16T01:58:17;7.90;99.90
39525;DHT22;25203;50.754;6.978;2023-04-16T02:00:18;7.90;99.90
39525;DHT22;25203;50.754;6.978;2023-04-16T02:02:18;7.90;99.90
39525;DHT22;25203;50.754;6.978;2023-04-16T02:04:19;7.90;99.90
39525;DHT22;25203;50.754;6.978;2023-04-16T02:06:20;7.90;99.90
39525;DHT22;25203;50.754;6.978;2023-04-16T02:08:20;7.90;99.90
39525;DHT22;25203;50.754;6.978;2023-04-16T02:10:21;7.90;99.90
39525;DHT22;25203;50.754;6.978;2023-04-16T02:12:22;7.90;99.90
39525;DHT22;25203;50.754;6.978;2023-04-16T02:14:22;7.80;99.90
39525;DHT22;25203;50.754;6.978;2023-04-16T02:16:24;7.80;99.90
39525;DHT22;25203;50.754;6.978;2023-04-16T02:18:25;7.90;99.90
39525;DHT22;25203;50.754;6.978;2023-04-16T02:20:26;7.80;99.90
39525;DHT22;25203;50.754;6.978;2023-04-16T02:22:26;7.80;99.90
39525;DHT22;25203;50.754;6.978;2023-04-16T02:24:27;7.90;99.90
39525;DHT22;25203;50.754;6.978;2023-04-16T02:26:28;7.80;99.90
39525;DHT22;25203;50.754;6.978;2023-04-16T02:28:29;7.80;99.90
39525;DHT22;25203;50.754;6.978;2023-04-16T02:30:29;7.80;99.90
39525;DHT22;25203;50.754;6.978;2023-04-16T02:32:30;7.80;99.90
39525;DHT22;25203;50.754;6.978;2023-04-16T02:34:31;7.80;99.90
39525;DHT22;25203;50.754;6.978;2023-04-16T02:36:33;7.70;99.90
39525;DHT22;25203;50.754;6.978;2023-04-16T02:38:33;7.70;99.90
39525;DHT22;25203;50.754;6.978;2023-04-16T02:40:36;7.70;99.90
39525;DHT22;25203;50.754;6.978;2023-04-16T02:42:37;7.70;99.90
39525;DHT22;25203;50.754;6.978;2023-04-16T02:44:37;7.70;99.90
39525;DHT22;25203;50.754;6.978;2023-04-16T02:46:38;7.70;99.90
39525;DHT22;25203;50.754;6.978;2023-04-16T02:48:39;7.70;99.90
39525;DHT22;25203;50.754;6.978;2023-04-16T02:50:39;7.70;99.90
39525;DHT22;25203;50.754;6.978;2023-04-16T02:52:40;7.70;99.90
39525;DHT22;25203;50.754;6.978;2023-04-16T02:54:41;7.70;99.90
39525;DHT22;25203;50.754;6.978;2023-04-16T02:56:41;7.70;99.90
39525;DHT22;25203;50.754;6.978;2023-04-16T02:58:42;7.70;99.90
39525;DHT22;25203;50.754;6.978;2023-04-16T03:00:42;7.70;99.90
39525;DHT22;25203;50.754;6.978;2023-04-16T03:02:43;7.70;99.90
39525;DHT22;25203;50.754;6.978;2023-04-16T03:04:44;7.70;99.90
39525;DHT22;25203;50.754;6.978;2023-04-16T03:06:44;7.80;99.90
39525;DHT22;25203;50.754;6.978;2023-04-16T03:08:45;7.80;99.90
39525;DHT22;25203;50.754;6.978;2023-04-16T03:10:46;7.80;99.90
39525;DHT22;25203;50.754;6.978;2023-04-16T03:12:46;7.80;99.90
39525;DHT22;25203;50.754;6.978;2023-04-16T03:14:49;7.80;99.90
39525;DHT22;25203;50.754;6.978;2023-04-16T03:16:49;7.80;99.90
39525;DHT22;25203;50.754;6.978;2023-04-16T03:18:50;7.80;99.90
39525;DHT22;25203;50.754;6.978;2023-04-16T03:20:51;7.80;99.90
39525;DHT22;25203;50.754;6.978;2023-04-16T03:22:52;7.80;99.90
39525;DHT22;25203;50.754;6.978;2023-04-16T03:24:53;7.80;99.90
39525;DHT22;25203;50.754;6.978;2023-04-16T03:26:53;7.80;99.90
39525;DHT22;25203;50.754;6.978;2023-04-16T03:28:54;7.80;99.90
39525;DHT22;25203;50.754;6.978;2023-04-16T03:30:54;7.80;99.90
39525;DHT22;25203;50.754;6.978;2023-04-16T03:32:55;7.80;99.90
39525;DHT22;25203;50.754;6.978;2023-04-16T03:34:56;7.80;99.90
39525;DHT22;25203;50.754;6.978;2023-04-16T03:36:56;7.80;99.90
39525;DHT22;25203;50.754;6.978;2023-04-16T03:38:57;7.80;99.90
39525;DHT22;25203;50.754;6.978;2023-04-16T03:40:58;7.80;99.90
39525;DHT22;25203;50.754;6.978;2023-04-16T03:42:58;7.90;99.90
39525;DHT22;25203;50.754;6.978;2023-04-16T03:44:59;7.80;99.90
39525;DHT22;25203;50.754;6.978;2023-04-16T03:47:00;7.80;99.90
39525;DHT22;25203;50.754;6.978;2023-04-16T03:49:00;7.80;99.90
39525;DHT22;25203;50.754;6.978;2023-04-16T03:51:01;7.80;99.90
39525;DHT22;25203;50.754;6.978;2023-04-16T03:53:02;7.90;99.90
39525;DHT22;25203;50.754;6.978;2023-04-16T03:55:03;7.90;99.90
39525;DHT22;25203;50.754;6.978;2023-04-16T03:57:03;7.90;99.90
39525;DHT22;25203;50.754;6.978;2023-04-16T03:59:04;7.90;99.90
39525;DHT22;25203;50.754;6.978;2023-04-16T04:01:05;7.90;99.90
39525;DHT22;25203;50.754;6.978;2023-04-16T04:03:05;7.90;99.90
39525;DHT22;25203;50.754;6.978;2023-04-16T04:05:06;7.90;99.90
39525;DHT22;25203;50.754;6.978;2023-04-16T04:07:07;7.90;99.90
39525;DHT22;25203;50.754;6.978;2023-04-16T04:09:07;7.90;99.90
39525;DHT22;25203;50.754;6.978;2023-04-16T04:11:08;7.90;99.90
39525;DHT22;25203;50.754;6.978;2023-04-16T04:13:08;7.90;99.90
39525;DHT22;25203;50.754;6.978;2023-04-16T04:15:10;7.90;99.90
39525;DHT22;25203;50.754;6.978;2023-04-16T04:17:11;7.90;99.90
39525;DHT22;25203;50.754;6.978;2023-04-16T04:19:11;7.90;99.90
39525;DHT22;25203;50.754;6.978;2023-04-16T04:21:12;7.90;99.90
39525;DHT22;25203;50.754;6.978;2023-04-16T04:23:12;7.90;99.90
39525;DHT22;25203;50.754;6.978;2023-04-16T04:25:13;7.80;99.90
39525;DHT22;25203;50.754;6.978;2023-04-16T04:27:13;7.80;99.90
39525;DHT22;25203;50.754;6.978;2023-04-16T04:29:14;7.90;99.90
39525;DHT22;25203;50.754;6.978;2023-04-16T04:31:15;7.80;99.90
39525;DHT22;25203;50.754;6.978;2023-04-16T04:33:15;7.80;99.90
39525;DHT22;25203;50.754;6.978;2023-04-16T04:35:16;7.90;99.90
39525;DHT22;25203;50.754;6.978;2023-04-16T04:37:17;7.80;99.90
39525;DHT22;25203;50.754;6.978;2023-04-16T04:39:17;7.80;99.90
39525;DHT22;25203;50.754;6.978;2023-04-16T04:41:20;7.80;99.90
39525;DHT22;25203;50.754;6.978;2023-04-16T04:43:22;7.80;99.90
39525;DHT22;25203;50.754;6.978;2023-04-16T04:45:23;7.80;99.90
39525;DHT22;25203;50.754;6.978;2023-04-16T04:47:24;7.90;99.90
39525;DHT22;25203;50.754;6.978;2023-04-16T04:49:25;7.80;99.90
39525;DHT22;25203;50.754;6.978;2023-04-16T04:51:26;7.90;99.90
39525;DHT22;25203;50.754;6.978;2023-04-16T04:53:27;7.80;99.90
39525;DHT22;25203;50.754;6.978;2023-04-16T04:55:27;7.90;99.90
39525;DHT22;25203;50.754;6.978;2023-04-16T04:57:28;7.90;99.90
39525;DHT22;25203;50.754;6.978;2023-04-16T04:59:28;7.90;99.90
39525;DHT22;25203;50.754;6.978;2023-04-16T05:01:29;7.80;99.90
39525;DHT22;25203;50.754;6.978;2023-04-16T05:03:30;7.80;99.90
39525;DHT22;25203;50.754;6.978;2023-04-16T05:05:31;7.80;99.90
39525;DHT22;25203;50.754;6.978;2023-04-16T05:07:31;7.80;99.90
39525;DHT22;25203;50.754;6.978;2023-04-16T05:09:32;7.80;99.90
39525;DHT22;25203;50.754;6.978;2023-04-16T05:11:33;7.80;99.90
39525;DHT22;25203;50.754;6.978;2023-04-16T05:13:33;7.80;99.90
39525;DHT22;25203;50.754;6.978;2023-04-16T05:15:34;7.90;99.90
39525;DHT22;25203;50.754;6.978;2023-04-16T05:17:34;7.90;99.90
39525;DHT22;25203;50.754;6.978;2023-04-16T05:19:35;7.90;99.90
39525;DHT22;25203;50.754;6.978;2023-04-16T05:21:36;7.90;99.90
39525;DHT22;25203;50.754;6.978;2023-04-16T05:23:36;7.90;99.90
39525;DHT22;25203;50.754;6.978;2023-04-16T05:25:37;7.90;99.90
39525;DHT22;25203;50.754;6.978;2023-04-16T05:27:38;7.90;99.90
39525;DHT22;25203;50.754;6.978;2023-04-16T05:29:38;7.90;99.90
39525;DHT22;25203;50.754;6.978;2023-04-16T05:31:40;7.90;99.90
39525;DHT22;25203;50.754;6.978;2023-04-16T05:33:40;7.90;99.90
39525;DHT22;25203;50.754;6.978;2023-04-16T05:35:41;7.90;99.90
39525;DHT22;25203;50.754;6.978;2023-04-16T05:37:41;7.90;99.90
39525;DHT22;25203;50.754;6.978;2023-04-16T05:39:42;7.90;99.90
39525;DHT22;25203;50.754;6.978;2023-04-16T05:41:42;7.90;99.90
39525;DHT22;25203;50.754;6.978;2023-04-16T05:43:43;7.90;99.90
39525;DHT22;25203;50.754;6.978;2023-04-16T05:45:44;8.00;99.90
39525;DHT22;25203;50.754;6.978;2023-04-16T05:47:44;8.00;99.90
39525;DHT22;25203;50.754;6.978;2023-04-16T05:49:45;8.00;99.90
39525;DHT22;25203;50.754;6.978;2023-04-16T05:51:45;8.00;99.90
39525;DHT22;25203;50.754;6.978;2023-04-16T05:53:46;8.00;99.90
39525;DHT22;25203;50.754;6.978;2023-04-16T05:55:46;8.00;99.90
39525;DHT22;25203;50.754;6.978;2023-04-16T05:57:47;8.00;99.90
39525;DHT22;25203;50.754;6.978;2023-04-16T05:59:48;8.00;99.90
39525;DHT22;25203;50.754;6.978;2023-04-16T06:01:48;8.10;99.90
39525;DHT22;25203;50.754;6.978;2023-04-16T06:03:49;8.10;99.90
39525;DHT22;25203;50.754;6.978;2023-04-16T06:05:49;8.10;99.90
39525;DHT22;25203;50.754;6.978;2023-04-16T06:07:50;8.10;99.90
39525;DHT22;25203;50.754;6.978;2023-04-16T06:09:50;8.10;99.90
39525;DHT22;25203;50.754;6.978;2023-04-16T06:11:51;8.10;99.90
39525;DHT22;25203;50.754;6.978;2023-04-16T06:13:52;8.10;99.90
39525;DHT22;25203;50.754;6.978;2023-04-16T06:15:53;8.20;99.90
39525;DHT22;25203;50.754;6.978;2023-04-16T06:17:54;8.10;99.90
39525;DHT22;25203;50.754;6.978;2023-04-16T06:19:55;8.10;99.90
39525;DHT22;25203;50.754;6.978;2023-04-16T06:21:56;8.20;99.90
39525;DHT22;25203;50.754;6.978;2023-04-16T06:23:57;8.10;99.90
39525;DHT22;25203;50.754;6.978;2023-04-16T06:25:57;8.10;99.90
39525;DHT22;25203;50.754;6.978;2023-04-16T06:27:58;8.10;99.90
39525;DHT22;25203;50.754;6.978;2023-04-16T06:29:58;8.20;99.90
39525;DHT22;25203;50.754;6.978;2023-04-16T06:31:59;8.10;99.90
39525;DHT22;25203;50.754;6.978;2023-04-16T06:34:00;8.20;99.90
39525;DHT22;25203;50.754;6.978;2023-04-16T06:36:00;8.10;99.90
39525;DHT22;25203;50.754;6.978;2023-04-16T06:38:01;8.20;99.90
39525;DHT22;25203;50.754;6.978;2023-04-16T06:40:01;8.20;99.90
39525;DHT22;25203;50.754;6.978;2023-04-16T06:42:03;8.20;99.90
39525;DHT22;25203;50.754;6.978;2023-04-16T06:44:04;8.20;99.90
39525;DHT22;25203;50.754;6.978;2023-04-16T06:46:04;8.20;99.90
39525;DHT22;25203;50.754;6.978;2023-04-16T06:48:05;8.20;99.90
39525;DHT22;25203;50.754;6.978;2023-04-16T06:50:06;8.20;99.90
39525;DHT22;25203;50.754;6.978;2023-04-16T06:52:07;8.20;99.90
39525;DHT22;25203;50.754;6.978;2023-04-16T06:54:07;8.20;99.90
39525;DHT22;25203;50.754;6.978;2023-04-16T06:56:08;8.20;99.90
39525;DHT22;25203;50.754;6.978;2023-04-16T06:58:08;8.20;99.90
39525;DHT22;25203;50.754;6.978;2023-04-16T07:00:10;8.20;99.90
39525;DHT22;25203;50.754;6.978;2023-04-16T07:02:11;8.20;99.90
39525;DHT22;25203;50.754;6.978;2023-04-16T07:04:11;8.20;99.90
39525;DHT22;25203;50.754;6.978;2023-04-16T07:06:12;8.20;99.90
39525;DHT22;25203;50.754;6.978;2023-04-16T07:08:13;8.20;99.90
39525;DHT22;25203;50.754;6.978;2023-04-16T07:10:13;8.20;99.90
39525;DHT22;25203;50.754;6.978;2023-04-16T07:12:14;8.20;99.90
39525;DHT22;25203;50.754;6.978;2023-04-16T07:14:14;8.20;99.90
39525;DHT22;25203;50.754;6.978;2023-04-16T07:16:16;8.20;99.90
39525;DHT22;25203;50.754;6.978;2023-04-16T07:18:16;8.20;99.90
39525;DHT22;25203;50.754;6.978;2023-04-16T07:20:17;8.20;99.90
39525;DHT22;25203;50.754;6.978;2023-04-16T07:22:18;8.20;99.90
39525;DHT22;25203;50.754;6.978;2023-04-16T07:24:19;8.30;99.90
39525;DHT22;25203;50.754;6.978;2023-04-16T07:26:20;8.30;99.90
39525;DHT22;25203;50.754;6.978;2023-04-16T07:28:20;8.30;99.90
39525;DHT22;25203;50.754;6.978;2023-04-16T07:30:21;8.30;99.90
39525;DHT22;25203;50.754;6.978;2023-04-16T07:32:21;8.30;99.90
39525;DHT22;25203;50.754;6.978;2023-04-16T07:34:22;8.30;99.90
39525;DHT22;25203;50.754;6.978;2023-04-16T07:36:23;8.30;99.90
39525;DHT22;25203;50.754;6.978;2023-04-16T07:38:23;8.30;99.90
39525;DHT22;25203;50.754;6.978;2023-04-16T07:40:24;8.30;99.90
39525;DHT22;25203;50.754;6.978;2023-04-16T07:42:26;8.30;99.90
39525;DHT22;25203;50.754;6.978;2023-04-16T07:44:27;8.30;99.90
39525;DHT22;25203;50.754;6.978;2023-04-16T07:46:28;8.30;99.90
39525;DHT22;25203;50.754;6.978;2023-04-16T07:48:28;8.40;99.90
39525;DHT22;25203;50.754;6.978;2023-04-16T07:50:29;8.30;99.90
39525;DHT22;25203;50.754;6.978;2023-04-16T07:52:29;8.40;99.90
39525;DHT22;25203;50.754;6.978;2023-04-16T07:54:30;8.30;99.90
39525;DHT22;25203;50.754;6.978;2023-04-16T07:56:31;8.30;99.90
39525;DHT22;25203;50.754;6.978;2023-04-16T07:58:31;8.30;99.90
39525;DHT22;25203;50.754;6.978;2023-04-16T08:00:32;8.30;99.90
39525;DHT22;25203;50.754;6.978;2023-04-16T08:02:33;8.30;99.90
39525;DHT22;25203;50.754;6.978;2023-04-16T08:04:33;8.40;99.90
39525;DHT22;25203;50.754;6.978;2023-04-16T08:06:34;8.40;99.90
39525;DHT22;25203;50.754;6.978;2023-04-16T08:08:34;8.40;99.90
39525;DHT22;25203;50.754;6.978;2023-04-16T08:10:35;8.40;99.90
39525;DHT22;25203;50.754;6.978;2023-04-16T08:12:36;8.50;99.90
39525;DHT22;25203;50.754;6.978;2023-04-16T08:14:36;8.40;99.90
39525;DHT22;25203;50.754;6.978;2023-04-16T08:16:37;8.50;99.90
39525;DHT22;25203;50.754;6.978;2023-04-16T08:18:39;8.60;99.90
39525;DHT22;25203;50.754;6.978;2023-04-16T08:20:41;8.50;99.90
39525;DHT22;25203;50.754;6.978;2023-04-16T08:22:41;8.60;99.90
39525;DHT22;25203;50.754;6.978;2023-04-16T08:24:42;8.60;99.90
39525;DHT22;25203;50.754;6.978;2023-04-16T08:26:42;8.60;99.90
39525;DHT22;25203;50.754;6.978;2023-04-16T08:28:43;8.60;99.90
39525;DHT22;25203;50.754;6.978;2023-04-16T08:30:43;8.60;99.90
39525;DHT22;25203;50.754;6.978;2023-04-16T08:32:45;8.70;99.90
39525;DHT22;25203;50.754;6.978;2023-04-16T08:34:46;8.70;99.90
39525;DHT22;25203;50.754;6.978;2023-04-16T08:36:46;8.80;99.90
39525;DHT22;25203;50.754;6.978;2023-04-16T08:38:47;8.80;99.90
39525;DHT22;25203;50.754;6.978;2023-04-16T08:40:47;8.80;99.90
39525;DHT22;25203;50.754;6.978;2023-04-16T08:42:53;8.90;99.90
39525;DHT22;25203;50.754;6.978;2023-04-16T08:45:22;8.90;99.90
39525;DHT22;25203;50.754;6.978;2023-04-16T08:47:24;8.90;99.90
39525;DHT22;25203;50.754;6.978;2023-04-16T08:49:28;8.90;99.90
39525;DHT22;25203;50.754;6.978;2023-04-16T08:51:33;8.90;99.90
39525;DHT22;25203;50.754;6.978;2023-04-16T08:53:52;8.90;99.90
39525;DHT22;25203;50.754;6.978;2023-04-16T08:55:57;8.90;99.90
39525;DHT22;25203;50.754;6.978;2023-04-16T08:58:00;8.90;99.90
39525;DHT22;25203;50.754;6.978;2023-04-16T09:00:04;8.90;99.90
39525;DHT22;25203;50.754;6.978;2023-04-16T09:02:06;9.00;99.90
39525;DHT22;25203;50.754;6.978;2023-04-16T09:04:06;9.20;99.90
39525;DHT22;25203;50.754;6.978;2023-04-16T09:06:08;9.30;99.90
39525;DHT22;25203;50.754;6.978;2023-04-16T09:08:09;9.40;99.90
39525;DHT22;25203;50.754;6.978;2023-04-16T09:10:11;9.40;99.90
39525;DHT22;25203;50.754;6.978;2023-04-16T09:12:11;9.40;99.90
39525;DHT22;25203;50.754;6.978;2023-04-16T09:14:12;9.40;99.90
39525;DHT22;25203;50.754;6.978;2023-04-16T09:16:14;9.40;99.90
39525;DHT22;25203;50.754;6.978;2023-04-16T09:18:14;9.40;99.90
39525;DHT22;25203;50.754;6.978;2023-04-16T09:20:15;9.40;99.90
39525;DHT22;25203;50.754;6.978;2023-04-16T09:22:15;9.40;99.90
39525;DHT22;25203;50.754;6.978;2023-04-16T09:24:17;9.40;99.90
39525;DHT22;25203;50.754;6.978;2023-04-16T09:26:18;9.40;99.90
39525;DHT22;25203;50.754;6.978;2023-04-16T09:28:42;9.40;99.90
39525;DHT22;25203;50.754;6.978;2023-04-16T09:30:43;9.40;99.90
39525;DHT22;25203;50.754;6.978;2023-04-16T09:32:43;9.50;99.90
39525;DHT22;25203;50.754;6.978;2023-04-16T09:35:10;9.40;99.90
39525;DHT22;25203;50.754;6.978;2023-04-16T09:37:18;9.50;99.90
39525;DHT22;25203;50.754;6.978;2023-04-16T09:39:18;9.50;99.90
39525;DHT22;25203;50.754;6.978;2023-04-16T09:41:24;9.60;99.90
39525;DHT22;25203;50.754;6.978;2023-04-16T09:43:26;9.70;99.90
39525;DHT22;25203;50.754;6.978;2023-04-16T09:45:30;9.70;99.90
39525;DHT22;25203;50.754;6.978;2023-04-16T09:49:40;9.80;99.90
39525;DHT22;25203;50.754;6.978;2023-04-16T09:51:47;9.80;99.90
39525;DHT22;25203;50.754;6.978;2023-04-16T09:53:51;10.00;99.90
39525;DHT22;25203;50.754;6.978;2023-04-16T09:55:57;10.10;99.90
39525;DHT22;25203;50.754;6.978;2023-04-16T09:57:59;10.30;99.90
39525;DHT22;25203;50.754;6.978;2023-04-16T10:00:03;10.40;99.90
39525;DHT22;25203;50.754;6.978;2023-04-16T10:02:07;10.50;99.90
39525;DHT22;25203;50.754;6.978;2023-04-16T10:04:07;10.60;99.90
39525;DHT22;25203;50.754;6.978;2023-04-16T10:06:14;10.70;99.90
39525;DHT22;25203;50.754;6.978;2023-04-16T10:08:15;10.60;99.90
39525;DHT22;25203;50.754;6.978;2023-04-16T10:10:16;10.60;99.90
39525;DHT22;25203;50.754;6.978;2023-04-16T10:12:19;10.60;99.90
39525;DHT22;25203;50.754;6.978;2023-04-16T10:14:20;10.50;99.90
39525;DHT22;25203;50.754;6.978;2023-04-16T10:16:21;10.60;99.90
39525;DHT22;25203;50.754;6.978;2023-04-16T10:18:22;10.60;99.90
39525;DHT22;25203;50.754;6.978;2023-04-16T10:20:23;10.50;99.90
39525;DHT22;25203;50.754;6.978;2023-04-16T10:22:24;10.50;99.90
39525;DHT22;25203;50.754;6.978;2023-04-16T10:24:25;10.40;99.90
39525;DHT22;25203;50.754;6.978;2023-04-16T10:26:28;10.40;99.90
39525;DHT22;25203;50.754;6.978;2023-04-16T10:28:29;10.50;99.90
39525;DHT22;25203;50.754;6.978;2023-04-16T10:30:30;10.70;99.90
39525;DHT22;25203;50.754;6.978;2023-04-16T10:32:31;10.70;99.90
39525;DHT22;25203;50.754;6.978;2023-04-16T10:34:32;10.80;99.90
39525;DHT22;25203;50.754;6.978;2023-04-16T10:36:36;10.90;99.90
39525;DHT22;25203;50.754;6.978;2023-04-16T10:38:48;11.00;99.90
39525;DHT22;25203;50.754;6.978;2023-04-16T10:40:49;11.10;99.90
39525;DHT22;25203;50.754;6.978;2023-04-16T10:42:57;11.10;99.90
39525;DHT22;25203;50.754;6.978;2023-04-16T10:44:58;11.10;99.90
39525;DHT22;25203;50.754;6.978;2023-04-16T10:46:59;11.20;99.90
39525;DHT22;25203;50.754;6.978;2023-04-16T10:49:02;11.10;99.90
39525;DHT22;25203;50.754;6.978;2023-04-16T10:51:32;11.10;99.90
39525;DHT22;25203;50.754;6.978;2023-04-16T10:53:36;11.10;99.90
39525;DHT22;25203;50.754;6.978;2023-04-16T10:55:39;11.20;99.90
39525;DHT22;25203;50.754;6.978;2023-04-16T10:57:40;11.20;99.90
39525;DHT22;25203;50.754;6.978;2023-04-16T10:59:42;11.30;99.90
39525;DHT22;25203;50.754;6.978;2023-04-16T11:01:44;11.30;99.90
39525;DHT22;25203;50.754;6.978;2023-04-16T11:03:48;11.40;99.90
39525;DHT22;25203;50.754;6.978;2023-04-16T11:05:48;11.50;99.90
39525;DHT22;25203;50.754;6.978;2023-04-16T11:07:49;11.60;99.90
39525;DHT22;25203;50.754;6.978;2023-04-16T11:10:04;11.60;99.90
39525;DHT22;25203;50.754;6.978;2023-04-16T11:12:06;11.50;99.90
39525;DHT22;25203;50.754;6.978;2023-04-16T11:14:09;11.40;99.90
39525;DHT22;25203;50.754;6.978;2023-04-16T11:16:12;11.40;99.90
39525;DHT22;25203;50.754;6.978;2023-04-16T11:18:18;11.30;99.90
39525;DHT22;25203;50.754;6.978;2023-04-16T11:20:21;11.30;99.90
39525;DHT22;25203;50.754;6.978;2023-04-16T11:22:21;11.30;99.90
39525;DHT22;25203;50.754;6.978;2023-04-16T11:24:22;11.30;99.90
39525;DHT22;25203;50.754;6.978;2023-04-16T11:28:34;11.40;99.90
39525;DHT22;25203;50.754;6.978;2023-04-16T11:30:37;11.40;99.90
39525;DHT22;25203;50.754;6.978;2023-04-16T11:32:39;11.40;99.90
39525;DHT22;25203;50.754;6.978;2023-04-16T11:34:44;11.50;99.90
39525;DHT22;25203;50.754;6.978;2023-04-16T11:36:46;11.60;99.90
39525;DHT22;25203;50.754;6.978;2023-04-16T11:38:47;11.60;99.90
39525;DHT22;25203;50.754;6.978;2023-04-16T11:40:48;11.70;99.90
39525;DHT22;25203;50.754;6.978;2023-04-16T11:42:50;11.70;99.90
39525;DHT22;25203;50.754;6.978;2023-04-16T11:44:56;11.70;99.90
39525;DHT22;25203;50.754;6.978;2023-04-16T11:46:56;11.70;99.90
39525;DHT22;25203;50.754;6.978;2023-04-16T11:48:57;11.60;99.90
39525;DHT22;25203;50.754;6.978;2023-04-16T11:50:58;11.70;99.90
39525;DHT22;25203;50.754;6.978;2023-04-16T11:53:03;11.90;99.90
39525;DHT22;25203;50.754;6.978;2023-04-16T11:55:05;12.10;99.90
39525;DHT22;25203;50.754;6.978;2023-04-16T11:57:06;12.40;99.90
39525;DHT22;25203;50.754;6.978;2023-04-16T11:59:08;12.60;99.90
39525;DHT22;25203;50.754;6.978;2023-04-16T12:01:09;12.70;99.90
39525;DHT22;25203;50.754;6.978;2023-04-16T12:03:10;12.80;99.90
39525;DHT22;25203;50.754;6.978;2023-04-16T12:07:31;12.90;99.90
39525;DHT22;25203;50.754;6.978;2023-04-16T12:09:32;12.80;99.90
39525;DHT22;25203;50.754;6.978;2023-04-16T12:11:40;12.70;99.90
39525;DHT22;25203;50.754;6.978;2023-04-16T12:13:41;12.60;99.90
39525;DHT22;25203;50.754;6.978;2023-04-16T12:15:51;12.30;99.90
39525;DHT22;25203;50.754;6.978;2023-04-16T12:18:05;12.10;99.90
39525;DHT22;25203;50.754;6.978;2023-04-16T12:22:09;12.00;99.90
39525;DHT22;25203;50.754;6.978;2023-04-16T12:24:11;12.00;99.90
39525;DHT22;25203;50.754;6.978;2023-04-16T12:26:12;12.00;99.90
39525;DHT22;25203;50.754;6.978;2023-04-16T12:28:13;12.00;99.90
39525;DHT22;25203;50.754;6.978;2023-04-16T12:30:18;12.00;99.90
39525;DHT22;25203;50.754;6.978;2023-04-16T12:32:22;12.10;99.90
39525;DHT22;25203;50.754;6.978;2023-04-16T12:34:22;12.30;99.90
39525;DHT22;25203;50.754;6.978;2023-04-16T12:36:23;12.50;99.90
39525;DHT22;25203;50.754;6.978;2023-04-16T12:38:24;12.70;99.90
39525;DHT22;25203;50.754;6.978;2023-04-16T12:40:26;12.80;99.90
39525;DHT22;25203;50.754;6.978;2023-04-16T12:42:26;12.90;99.90
39525;DHT22;25203;50.754;6.978;2023-04-16T12:44:27;12.90;99.90
39525;DHT22;25203;50.754;6.978;2023-04-16T12:46:28;12.70;99.90
39525;DHT22;25203;50.754;6.978;2023-04-16T12:48:29;12.70;99.90
39525;DHT22;25203;50.754;6.978;2023-04-16T12:50:31;12.60;99.90
39525;DHT22;25203;50.754;6.978;2023-04-16T12:52:33;12.60;99.90
39525;DHT22;25203;50.754;6.978;2023-04-16T12:54:34;12.70;99.90
39525;DHT22;25203;50.754;6.978;2023-04-16T12:56:35;12.90;99.90
39525;DHT22;25203;50.754;6.978;2023-04-16T12:58:35;13.10;99.90
39525;DHT22;25203;50.754;6.978;2023-04-16T13:00:36;13.20;99.90
39525;DHT22;25203;50.754;6.978;2023-04-16T13:02:36;13.20;99.90
39525;DHT22;25203;50.754;6.978;2023-04-16T13:04:37;13.20;99.90
39525;DHT22;25203;50.754;6.978;2023-04-16T13:06:38;13.10;99.90